sensor_id;sensor_type;location;lat;lon;timestamp;pressure;altitude;pressure_sealevel;temperature;humidity
24440;BME280;12618;54.386;18.394;2023-10-08T00:00:02;99469.59;;;8.11;80.24
24440;BME280;12618;54.386;18.394;2023-10-08T00:02:55;99473.52;;;8.09;80.33
24440;BME280;12618;54.386;18.394;2023-10-08T00:05:28;99485.26;;;8.09;80.13
24440;BME280;12618;54.386;18.394;2023-10-08T00:08:04;99480.03;;;8.04;79.74
24440;BME280;12618;54.386;18.394;2023-10-08T00:10:39;99478.39;;;8.01;79.74
24440;BME280;12618;54.386;18.394;2023-10-08T00:13:14;99479.39;;;7.98;79.68
24440;BME280;12618;54.386;18.394;2023-10-08T00:15:54;99476.32;;;7.96;79.43
24440;BME280;12618;54.386;18.394;2023-10-08T00:18:31;99476.58;;;7.94;79.11
24440;BME280;12618;54.386;18.394;2023-10-08T00:21:05;99478.31;;;7.90;79.12
24440;BME280;12618;54.386;18.394;2023-10-08T00:23:43;99482.88;;;7.85;78.88
24440;BME280;12618;54.386;18.394;2023-10-08T00:26:24;99483.46;;;7.80;78.96
24440;BME280;12618;54.386;18.394;2023-10-08T00:29:03;99484.30;;;7.76;79.04
24440;BME280;12618;54.386;18.394;2023-10-08T00:31:49;99488.88;;;7.72;79.24
24440;BME280;12618;54.386;18.394;2023-10-08T00:34:22;99487.70;;;7.66;79.07
24440;BME280;12618;54.386;18.394;2023-10-08T00:36:58;99491.21;;;7.61;78.87
24440;BME280;12618;54.386;18.394;2023-10-08T00:39:31;99489.89;;;7.60;78.78
24440;BME280;12618;54.386;18.394;2023-10-08T00:42:07;99492.79;;;7.57;78.59
24440;BME280;12618;54.386;18.394;2023-10-08T00:44:40;99496.09;;;7.53;78.59
24440;BME280;12618;54.386;18.394;2023-10-08T00:47:28;99502.41;;;7.49;78.55
24440;BME280;12618;54.386;18.394;2023-10-08T00:50:00;99507.65;;;7.44;78.70
24440;BME280;12618;54.386;18.394;2023-10-08T00:52:55;99509.80;;;7.38;77.99
24440;BME280;12618;54.386;18.394;2023-10-08T00:55:32;99512.33;;;7.31;77.76
24440;BME280;12618;54.386;18.394;2023-10-08T00:58:07;99517.72;;;7.32;77.59
24440;BME280;12618;54.386;18.394;2023-10-08T01:00:45;99522.39;;;7.29;77.45
24440;BME280;12618;54.386;18.394;2023-10-08T01:03:20;99529.16;;;7.26;77.06
24440;BME280;12618;54.386;18.394;2023-10-08T01:05:54;99530.48;;;7.23;76.77
24440;BME280;12618;54.386;18.394;2023-10-08T01:08:28;99537.81;;;7.19;76.31
24440;BME280;12618;54.386;18.394;2023-10-08T01:11:24;99534.31;;;7.14;76.25
24440;BME280;12618;54.386;18.394;2023-10-08T01:14:18;99534.84;;;7.09;76.28
24440;BME280;12618;54.386;18.394;2023-10-08T01:16:52;99545.56;;;7.08;75.84
24440;BME280;12618;54.386;18.394;2023-10-08T01:19:24;99540.36;;;7.02;75.77
24440;BME280;12618;54.386;18.394;2023-10-08T01:22:04;99547.01;;;7.02;76.00
24440;BME280;12618;54.386;18.394;2023-10-08T01:24:39;99547.48;;;6.98;75.59
24440;BME280;12618;54.386;18.394;2023-10-08T01:27:11;99546.05;;;6.95;75.47
24440;BME280;12618;54.386;18.394;2023-10-08T01:29:43;99552.63;;;6.92;74.86
24440;BME280;12618;54.386;18.394;2023-10-08T01:32:16;99555.34;;;6.89;74.82
24440;BME280;12618;54.386;18.394;2023-10-08T01:34:49;99556.86;;;6.86;74.58
24440;BME280;12618;54.386;18.394;2023-10-08T01:37:21;99562.70;;;6.84;74.07
24440;BME280;12618;54.386;18.394;2023-10-08T01:39:54;99566.50;;;6.81;74.04
24440;BME280;12618;54.386;18.394;2023-10-08T01:42:27;99571.22;;;6.81;73.85
24440;BME280;12618;54.386;18.394;2023-10-08T01:45:02;99574.13;;;6.77;73.99
24440;BME280;12618;54.386;18.394;2023-10-08T01:47:39;99573.50;;;6.75;74.13
24440;BME280;12618;54.386;18.394;2023-10-08T01:50:13;99573.52;;;6.70;73.54
24440;BME280;12618;54.386;18.394;2023-10-08T01:52:56;99582.70;;;6.67;73.50
24440;BME280;12618;54.386;18.394;2023-10-08T01:55:27;99588.95;;;6.63;73.36
24440;BME280;12618;54.386;18.394;2023-10-08T01:58:05;99597.95;;;6.61;73.31
24440;BME280;12618;54.386;18.394;2023-10-08T02:00:45;99595.08;;;6.57;73.43
24440;BME280;12618;54.386;18.394;2023-10-08T02:03:18;99602.91;;;6.53;73.40
24440;BME280;12618;54.386;18.394;2023-10-08T02:05:51;99607.98;;;6.53;73.23
24440;BME280;12618;54.386;18.394;2023-10-08T02:08:26;99609.48;;;6.50;72.91
24440;BME280;12618;54.386;18.394;2023-10-08T02:10:58;99610.29;;;6.47;73.14
24440;BME280;12618;54.386;18.394;2023-10-08T02:13:31;99612.47;;;6.44;73.28
24440;BME280;12618;54.386;18.394;2023-10-08T02:16:06;99615.05;;;6.40;73.18
24440;BME280;12618;54.386;18.394;2023-10-08T02:18:39;99616.39;;;6.37;73.36
24440;BME280;12618;54.386;18.394;2023-10-08T02:21:11;99619.11;;;6.33;73.01
24440;BME280;12618;54.386;18.394;2023-10-08T02:23:43;99622.85;;;6.31;73.21
24440;BME280;12618;54.386;18.394;2023-10-08T02:26:16;99621.91;;;6.28;72.70
24440;BME280;12618;54.386;18.394;2023-10-08T02:28:51;99626.48;;;6.28;73.21
24440;BME280;12618;54.386;18.394;2023-10-08T02:31:24;99631.77;;;6.26;73.02
24440;BME280;12618;54.386;18.394;2023-10-08T02:33:56;99629.23;;;6.23;72.91
24440;BME280;12618;54.386;18.394;2023-10-08T02:36:30;99630.68;;;6.21;73.10
24440;BME280;12618;54.386;18.394;2023-10-08T02:39:03;99628.54;;;6.18;72.40
24440;BME280;12618;54.386;18.394;2023-10-08T02:41:46;99626.84;;;6.16;72.72
24440;BME280;12618;54.386;18.394;2023-10-08T02:44:19;99636.82;;;6.16;72.37
24440;BME280;12618;54.386;18.394;2023-10-08T02:46:52;99639.29;;;6.15;72.16
24440;BME280;12618;54.386;18.394;2023-10-08T02:49:25;99643.15;;;6.14;72.39
24440;BME280;12618;54.386;18.394;2023-10-08T02:52:01;99642.67;;;6.12;72.24
24440;BME280;12618;54.386;18.394;2023-10-08T02:54:36;99643.63;;;6.10;72.47
24440;BME280;12618;54.386;18.394;2023-10-08T02:57:09;99643.48;;;6.09;72.52
24440;BME280;12618;54.386;18.394;2023-10-08T02:59:47;99645.92;;;6.09;72.28
24440;BME280;12618;54.386;18.394;2023-10-08T03:02:21;99646.98;;;6.08;72.09
24440;BME280;12618;54.386;18.394;2023-10-08T03:04:56;99652.08;;;6.08;72.42
24440;BME280;12618;54.386;18.394;2023-10-08T03:07:29;99657.54;;;6.07;72.43
24440;BME280;12618;54.386;18.394;2023-10-08T03:10:05;99664.38;;;6.05;72.39
24440;BME280;12618;54.386;18.394;2023-10-08T03:12:58;99664.61;;;6.03;72.45
24440;BME280;12618;54.386;18.394;2023-10-08T03:15:40;99658.75;;;6.01;72.92
24440;BME280;12618;54.386;18.394;2023-10-08T03:18:22;99664.23;;;5.98;72.88
24440;BME280;12618;54.386;18.394;2023-10-08T03:20:57;99662.34;;;5.97;73.22
24440;BME280;12618;54.386;18.394;2023-10-08T03:23:35;99672.17;;;5.96;73.47
24440;BME280;12618;54.386;18.394;2023-10-08T03:26:08;99666.95;;;5.96;73.52
24440;BME280;12618;54.386;18.394;2023-10-08T03:28:43;99666.98;;;5.95;73.95
24440;BME280;12618;54.386;18.394;2023-10-08T03:31:41;99671.66;;;5.96;74.08
24440;BME280;12618;54.386;18.394;2023-10-08T03:34:23;99676.27;;;5.93;74.25
24440;BME280;12618;54.386;18.394;2023-10-08T03:37:07;99678.95;;;5.92;74.12
24440;BME280;12618;54.386;18.394;2023-10-08T03:39:39;99685.23;;;5.91;74.44
24440;BME280;12618;54.386;18.394;2023-10-08T03:42:31;99687.90;;;5.89;74.83
24440;BME280;12618;54.386;18.394;2023-10-08T03:45:12;99688.61;;;5.88;74.85
24440;BME280;12618;54.386;18.394;2023-10-08T03:47:44;99685.84;;;5.87;74.91
24440;BME280;12618;54.386;18.394;2023-10-08T03:50:19;99690.55;;;5.87;74.91
24440;BME280;12618;54.386;18.394;2023-10-08T03:52:51;99696.48;;;5.87;75.08
24440;BME280;12618;54.386;18.394;2023-10-08T03:55:29;99693.42;;;5.84;75.21
24440;BME280;12618;54.386;18.394;2023-10-08T03:58:10;99694.70;;;5.83;75.62
24440;BME280;12618;54.386;18.394;2023-10-08T04:00:50;99697.02;;;5.81;75.51
24440;BME280;12618;54.386;18.394;2023-10-08T04:03:22;99696.85;;;5.81;75.70
24440;BME280;12618;54.386;18.394;2023-10-08T04:06:13;99694.93;;;5.80;75.94
24440;BME280;12618;54.386;18.394;2023-10-08T04:08:54;99700.55;;;5.79;75.88
24440;BME280;12618;54.386;18.394;2023-10-08T04:11:42;99708.61;;;5.78;75.81
24440;BME280;12618;54.386;18.394;2023-10-08T04:14:24;99714.75;;;5.77;75.88
24440;BME280;12618;54.386;18.394;2023-10-08T04:16:56;99714.95;;;5.76;75.72
24440;BME280;12618;54.386;18.394;2023-10-08T04:19:32;99714.79;;;5.75;75.59
24440;BME280;12618;54.386;18.394;2023-10-08T04:22:08;99713.94;;;5.75;75.53
24440;BME280;12618;54.386;18.394;2023-10-08T04:24:48;99713.42;;;5.74;75.51
24440;BME280;12618;54.386;18.394;2023-10-08T04:27:23;99716.27;;;5.73;75.55
24440;BME280;12618;54.386;18.394;2023-10-08T04:29:55;99716.52;;;5.71;75.59
24440;BME280;12618;54.386;18.394;2023-10-08T04:32:29;99722.17;;;5.68;75.78
24440;BME280;12618;54.386;18.394;2023-10-08T04:35:03;99728.48;;;5.67;75.55
24440;BME280;12618;54.386;18.394;2023-10-08T04:37:39;99729.42;;;5.65;75.62
24440;BME280;12618;54.386;18.394;2023-10-08T04:40:13;99730.20;;;5.62;75.42
24440;BME280;12618;54.386;18.394;2023-10-08T04:42:47;99731.23;;;5.63;75.55
24440;BME280;12618;54.386;18.394;2023-10-08T04:45:23;99731.23;;;5.63;75.34
24440;BME280;12618;54.386;18.394;2023-10-08T04:48:00;99732.45;;;5.62;75.62
24440;BME280;12618;54.386;18.394;2023-10-08T04:50:32;99734.60;;;5.61;75.78
24440;BME280;12618;54.386;18.394;2023-10-08T04:53:08;99734.85;;;5.58;75.81
24440;BME280;12618;54.386;18.394;2023-10-08T04:55:42;99732.77;;;5.57;75.87
24440;BME280;12618;54.386;18.394;2023-10-08T04:58:19;99738.56;;;5.56;75.78
24440;BME280;12618;54.386;18.394;2023-10-08T05:01:04;99737.90;;;5.55;75.88
24440;BME280;12618;54.386;18.394;2023-10-08T05:04:06;99738.40;;;5.55;75.93
24440;BME280;12618;54.386;18.394;2023-10-08T05:06:38;99744.32;;;5.56;76.07
24440;BME280;12618;54.386;18.394;2023-10-08T05:09:11;99754.25;;;5.57;76.10
24440;BME280;12618;54.386;18.394;2023-10-08T05:11:45;99760.55;;;5.56;76.28
24440;BME280;12618;54.386;18.394;2023-10-08T05:14:38;99762.24;;;5.58;76.24
24440;BME280;12618;54.386;18.394;2023-10-08T05:17:27;99762.25;;;5.58;76.43
24440;BME280;12618;54.386;18.394;2023-10-08T05:20:14;99762.53;;;5.60;76.48
24440;BME280;12618;54.386;18.394;2023-10-08T05:23:12;99768.70;;;5.64;76.52
24440;BME280;12618;54.386;18.394;2023-10-08T05:26:07;99772.42;;;5.69;76.63
24440;BME280;12618;54.386;18.394;2023-10-08T05:28:40;99770.24;;;5.72;76.66
24440;BME280;12618;54.386;18.394;2023-10-08T05:31:31;99774.73;;;5.74;76.55
24440;BME280;12618;54.386;18.394;2023-10-08T05:34:26;99782.16;;;5.76;76.88
24440;BME280;12618;54.386;18.394;2023-10-08T05:37:15;99781.20;;;5.80;76.86
24440;BME280;12618;54.386;18.394;2023-10-08T05:40:07;99778.14;;;5.83;76.99
24440;BME280;12618;54.386;18.394;2023-10-08T05:43:05;99791.48;;;5.86;76.95
24440;BME280;12618;54.386;18.394;2023-10-08T05:45:57;99801.03;;;5.90;77.18
24440;BME280;12618;54.386;18.394;2023-10-08T05:48:53;99808.09;;;5.94;77.41
24440;BME280;12618;54.386;18.394;2023-10-08T05:51:59;99808.56;;;5.96;77.90
24440;BME280;12618;54.386;18.394;2023-10-08T05:54:32;99813.36;;;5.99;77.86
24440;BME280;12618;54.386;18.394;2023-10-08T05:57:19;99821.83;;;6.03;78.00
24440;BME280;12618;54.386;18.394;2023-10-08T06:00:11;99827.17;;;6.05;78.41
24440;BME280;12618;54.386;18.394;2023-10-08T06:02:45;99828.64;;;6.08;79.09
24440;BME280;12618;54.386;18.394;2023-10-08T06:05:19;99828.59;;;6.10;78.91
24440;BME280;12618;54.386;18.394;2023-10-08T06:07:54;99833.02;;;6.14;78.90
24440;BME280;12618;54.386;18.394;2023-10-08T06:10:32;99830.68;;;6.17;78.98
24440;BME280;12618;54.386;18.394;2023-10-08T06:13:12;99834.02;;;6.22;78.94
24440;BME280;12618;54.386;18.394;2023-10-08T06:15:56;99838.45;;;6.26;78.99
24440;BME280;12618;54.386;18.394;2023-10-08T06:18:30;99845.48;;;6.31;78.91
24440;BME280;12618;54.386;18.394;2023-10-08T06:21:05;99851.27;;;6.36;78.59
24440;BME280;12618;54.386;18.394;2023-10-08T06:23:47;99847.56;;;6.43;78.67
24440;BME280;12618;54.386;18.394;2023-10-08T06:26:27;99852.20;;;6.52;78.40
24440;BME280;12618;54.386;18.394;2023-10-08T06:29:05;99855.27;;;6.67;77.92
24440;BME280;12618;54.386;18.394;2023-10-08T06:31:50;99862.39;;;6.80;77.67
24440;BME280;12618;54.386;18.394;2023-10-08T06:34:27;99866.65;;;6.95;77.26
24440;BME280;12618;54.386;18.394;2023-10-08T06:37:03;99873.64;;;7.12;76.93
24440;BME280;12618;54.386;18.394;2023-10-08T06:39:38;99877.00;;;7.33;75.57
24440;BME280;12618;54.386;18.394;2023-10-08T06:42:20;99878.45;;;7.63;75.03
24440;BME280;12618;54.386;18.394;2023-10-08T06:45:00;99884.84;;;8.07;74.40
24440;BME280;12618;54.386;18.394;2023-10-08T06:47:32;99889.48;;;8.34;73.51
24440;BME280;12618;54.386;18.394;2023-10-08T06:50:05;99890.59;;;8.43;71.76
24440;BME280;12618;54.386;18.394;2023-10-08T06:52:47;99895.20;;;8.61;70.26
24440;BME280;12618;54.386;18.394;2023-10-08T06:55:20;99900.02;;;8.78;69.20
24440;BME280;12618;54.386;18.394;2023-10-08T06:57:56;99904.35;;;8.79;68.27
24440;BME280;12618;54.386;18.394;2023-10-08T07:00:28;99911.33;;;8.75;69.55
24440;BME280;12618;54.386;18.394;2023-10-08T07:03:12;99916.53;;;8.58;68.94
24440;BME280;12618;54.386;18.394;2023-10-08T07:05:48;99928.45;;;8.43;70.01
24440;BME280;12618;54.386;18.394;2023-10-08T07:08:31;99926.21;;;8.32;70.17
24440;BME280;12618;54.386;18.394;2023-10-08T07:11:05;99931.55;;;8.25;70.06
24440;BME280;12618;54.386;18.394;2023-10-08T07:13:39;99926.98;;;8.20;70.53
24440;BME280;12618;54.386;18.394;2023-10-08T07:16:15;99929.00;;;8.17;70.28
24440;BME280;12618;54.386;18.394;2023-10-08T07:18:52;99932.02;;;8.16;69.99
24440;BME280;12618;54.386;18.394;2023-10-08T07:21:25;99937.02;;;8.14;69.23
24440;BME280;12618;54.386;18.394;2023-10-08T07:24:01;99939.60;;;8.16;69.30
24440;BME280;12618;54.386;18.394;2023-10-08T07:26:32;99942.38;;;8.16;67.82
24440;BME280;12618;54.386;18.394;2023-10-08T07:29:18;99943.55;;;8.17;68.58
24440;BME280;12618;54.386;18.394;2023-10-08T07:31:51;99944.69;;;8.19;69.26
24440;BME280;12618;54.386;18.394;2023-10-08T07:34:24;99948.81;;;8.22;68.92
24440;BME280;12618;54.386;18.394;2023-10-08T07:36:56;99955.42;;;8.23;67.39
24440;BME280;12618;54.386;18.394;2023-10-08T07:39:28;99952.06;;;8.25;66.03
24440;BME280;12618;54.386;18.394;2023-10-08T07:42:05;99957.34;;;8.29;66.63
24440;BME280;12618;54.386;18.394;2023-10-08T07:44:38;99957.91;;;8.28;65.71
24440;BME280;12618;54.386;18.394;2023-10-08T07:47:12;99966.40;;;8.37;63.59
24440;BME280;12618;54.386;18.394;2023-10-08T07:49:46;99972.79;;;8.39;63.24
24440;BME280;12618;54.386;18.394;2023-10-08T07:52:22;99975.45;;;8.43;64.49
24440;BME280;12618;54.386;18.394;2023-10-08T07:54:55;99974.27;;;8.47;64.87
24440;BME280;12618;54.386;18.394;2023-10-08T07:57:29;99985.33;;;8.51;62.91
24440;BME280;12618;54.386;18.394;2023-10-08T08:00:04;99983.83;;;8.54;62.62
24440;BME280;12618;54.386;18.394;2023-10-08T08:02:56;99983.50;;;8.59;63.66
24440;BME280;12618;54.386;18.394;2023-10-08T08:05:29;99995.96;;;8.63;60.94
24440;BME280;12618;54.386;18.394;2023-10-08T08:08:02;99997.79;;;8.66;60.89
24440;BME280;12618;54.386;18.394;2023-10-08T08:10:38;99997.89;;;8.68;59.21
24440;BME280;12618;54.386;18.394;2023-10-08T08:13:19;100004.08;;;8.72;60.26
24440;BME280;12618;54.386;18.394;2023-10-08T08:15:59;100005.48;;;8.76;61.31
24440;BME280;12618;54.386;18.394;2023-10-08T08:19:04;100011.21;;;8.84;61.54
24440;BME280;12618;54.386;18.394;2023-10-08T08:21:37;100015.82;;;8.87;61.27
24440;BME280;12618;54.386;18.394;2023-10-08T08:24:09;100017.67;;;8.89;60.20
24440;BME280;12618;54.386;18.394;2023-10-08T08:26:44;100026.59;;;8.90;60.42
24440;BME280;12618;54.386;18.394;2023-10-08T08:29:34;100025.32;;;8.91;60.76
24440;BME280;12618;54.386;18.394;2023-10-08T08:32:17;100033.55;;;8.96;61.59
24440;BME280;12618;54.386;18.394;2023-10-08T08:34:54;100036.73;;;9.00;60.98
24440;BME280;12618;54.386;18.394;2023-10-08T08:37:26;100038.19;;;9.04;60.94
24440;BME280;12618;54.386;18.394;2023-10-08T08:40:02;100039.35;;;9.06;59.43
24440;BME280;12618;54.386;18.394;2023-10-08T08:42:50;100044.50;;;9.09;60.43
24440;BME280;12618;54.386;18.394;2023-10-08T08:45:31;100042.31;;;9.16;60.49
24440;BME280;12618;54.386;18.394;2023-10-08T08:48:06;100036.94;;;9.24;60.50
24440;BME280;12618;54.386;18.394;2023-10-08T08:50:40;100037.48;;;9.28;60.23
24440;BME280;12618;54.386;18.394;2023-10-08T08:53:16;100040.44;;;9.33;59.42
24440;BME280;12618;54.386;18.394;2023-10-08T08:55:51;100049.27;;;9.36;56.00
24440;BME280;12618;54.386;18.394;2023-10-08T08:58:26;100046.14;;;9.35;56.51
24440;BME280;12618;54.386;18.394;2023-10-08T09:01:03;100040.08;;;9.38;56.66
24440;BME280;12618;54.386;18.394;2023-10-08T09:03:38;100045.35;;;9.42;57.08
24440;BME280;12618;54.386;18.394;2023-10-08T09:06:11;100046.69;;;9.48;57.86
24440;BME280;12618;54.386;18.394;2023-10-08T09:08:46;100047.09;;;9.61;57.42
24440;BME280;12618;54.386;18.394;2023-10-08T09:11:19;100050.27;;;9.78;57.93
24440;BME280;12618;54.386;18.394;2023-10-08T09:13:53;100057.39;;;9.90;54.71
24440;BME280;12618;54.386;18.394;2023-10-08T09:16:25;100060.73;;;9.94;54.19
24440;BME280;12618;54.386;18.394;2023-10-08T09:18:59;100053.88;;;10.07;52.99
24440;BME280;12618;54.386;18.394;2023-10-08T09:21:32;100068.14;;;10.25;52.76
24440;BME280;12618;54.386;18.394;2023-10-08T09:24:06;100067.05;;;10.42;52.67
24440;BME280;12618;54.386;18.394;2023-10-08T09:26:46;100073.51;;;10.52;52.97
24440;BME280;12618;54.386;18.394;2023-10-08T09:29:24;100076.55;;;10.51;52.21
24440;BME280;12618;54.386;18.394;2023-10-08T09:31:58;100091.45;;;10.35;49.18
24440;BME280;12618;54.386;18.394;2023-10-08T09:34:30;100098.27;;;10.28;50.75
24440;BME280;12618;54.386;18.394;2023-10-08T09:37:14;100100.31;;;10.26;50.92
24440;BME280;12618;54.386;18.394;2023-10-08T09:39:46;100096.52;;;10.24;52.66
24440;BME280;12618;54.386;18.394;2023-10-08T09:42:19;100103.30;;;10.26;51.53
24440;BME280;12618;54.386;18.394;2023-10-08T09:44:54;100108.22;;;10.34;51.81
24440;BME280;12618;54.386;18.394;2023-10-08T09:47:27;100105.02;;;10.43;52.51
24440;BME280;12618;54.386;18.394;2023-10-08T09:50:05;100108.94;;;10.59;50.55
24440;BME280;12618;54.386;18.394;2023-10-08T09:52:46;100115.23;;;10.76;51.44
24440;BME280;12618;54.386;18.394;2023-10-08T09:55:20;100116.23;;;10.98;50.49
24440;BME280;12618;54.386;18.394;2023-10-08T09:57:52;100119.19;;;10.99;49.72
24440;BME280;12618;54.386;18.394;2023-10-08T10:00:28;100128.28;;;11.05;49.80
24440;BME280;12618;54.386;18.394;2023-10-08T10:03:03;100128.59;;;10.93;49.42
24440;BME280;12618;54.386;18.394;2023-10-08T10:05:36;100126.63;;;10.90;51.18
24440;BME280;12618;54.386;18.394;2023-10-08T10:08:08;100129.20;;;11.04;51.28
24440;BME280;12618;54.386;18.394;2023-10-08T10:10:42;100129.59;;;11.12;48.61
24440;BME280;12618;54.386;18.394;2023-10-08T10:13:27;100132.40;;;11.11;49.10
24440;BME280;12618;54.386;18.394;2023-10-08T10:16:00;100152.01;;;11.14;48.70
24440;BME280;12618;54.386;18.394;2023-10-08T10:18:33;100145.71;;;11.13;49.38
24440;BME280;12618;54.386;18.394;2023-10-08T10:23:45;100156.55;;;11.03;46.29
24440;BME280;12618;54.386;18.394;2023-10-08T10:26:22;100160.13;;;10.88;44.61
24440;BME280;12618;54.386;18.394;2023-10-08T10:31:49;100163.98;;;10.85;44.60
24440;BME280;12618;54.386;18.394;2023-10-08T10:34:26;100157.38;;;10.83;45.02
24440;BME280;12618;54.386;18.394;2023-10-08T10:36:59;100157.73;;;10.87;45.60
24440;BME280;12618;54.386;18.394;2023-10-08T10:39:40;100162.17;;;10.86;45.00
24440;BME280;12618;54.386;18.394;2023-10-08T10:42:13;100159.27;;;10.92;46.02
24440;BME280;12618;54.386;18.394;2023-10-08T10:44:59;100160.20;;;11.12;46.15
24440;BME280;12618;54.386;18.394;2023-10-08T10:48:07;100168.04;;;11.34;46.17
24440;BME280;12618;54.386;18.394;2023-10-08T10:50:54;100163.60;;;11.54;46.61
24440;BME280;12618;54.386;18.394;2023-10-08T10:53:40;100164.34;;;11.70;45.76
24440;BME280;12618;54.386;18.394;2023-10-08T10:56:42;100166.33;;;11.81;46.04
24440;BME280;12618;54.386;18.394;2023-10-08T10:59:17;100176.98;;;11.87;45.84
24440;BME280;12618;54.386;18.394;2023-10-08T11:02:29;100173.68;;;11.70;45.29
24440;BME280;12618;54.386;18.394;2023-10-08T11:09:07;100193.13;;;11.41;47.16
24440;BME280;12618;54.386;18.394;2023-10-08T11:12:53;100194.16;;;11.21;47.83
24440;BME280;12618;54.386;18.394;2023-10-08T11:27:26;100195.59;;;11.12;48.94
24440;BME280;12618;54.386;18.394;2023-10-08T11:30:57;100208.75;;;11.13;47.91
24440;BME280;12618;54.386;18.394;2023-10-08T11:34:05;100205.17;;;10.98;48.51
24440;BME280;12618;54.386;18.394;2023-10-08T11:37:11;100203.79;;;10.88;48.92
24440;BME280;12618;54.386;18.394;2023-10-08T11:40:23;100207.61;;;10.81;49.06
24440;BME280;12618;54.386;18.394;2023-10-08T11:43:31;100213.72;;;10.74;49.33
24440;BME280;12618;54.386;18.394;2023-10-08T11:46:58;100215.80;;;10.70;49.18
24440;BME280;12618;54.386;18.394;2023-10-08T11:50:15;100222.66;;;10.71;49.38
24440;BME280;12618;54.386;18.394;2023-10-08T11:53:21;100221.40;;;10.93;49.74
24440;BME280;12618;54.386;18.394;2023-10-08T11:56:16;100229.30;;;11.19;49.33
24440;BME280;12618;54.386;18.394;2023-10-08T11:58:53;100229.54;;;11.38;48.56
24440;BME280;12618;54.386;18.394;2023-10-08T12:02:18;100230.81;;;11.45;48.81
24440;BME280;12618;54.386;18.394;2023-10-08T12:07:57;100234.89;;;11.56;49.12
24440;BME280;12618;54.386;18.394;2023-10-08T12:10:30;100241.30;;;11.63;49.15
24440;BME280;12618;54.386;18.394;2023-10-08T12:13:06;100241.83;;;11.67;48.02
24440;BME280;12618;54.386;18.394;2023-10-08T12:15:37;100244.63;;;11.55;47.06
24440;BME280;12618;54.386;18.394;2023-10-08T12:18:13;100252.17;;;11.44;47.30
24440;BME280;12618;54.386;18.394;2023-10-08T12:20:56;100263.04;;;11.33;47.48
24440;BME280;12618;54.386;18.394;2023-10-08T12:23:29;100256.48;;;11.22;48.04
24440;BME280;12618;54.386;18.394;2023-10-08T12:26:05;100260.40;;;11.24;48.90
24440;BME280;12618;54.386;18.394;2023-10-08T12:28:39;100269.50;;;11.30;46.99
24440;BME280;12618;54.386;18.394;2023-10-08T12:31:12;100262.78;;;11.31;47.75
24440;BME280;12618;54.386;18.394;2023-10-08T12:33:47;100268.89;;;11.40;47.38
24440;BME280;12618;54.386;18.394;2023-10-08T12:36:20;100262.65;;;11.42;46.09
24440;BME280;12618;54.386;18.394;2023-10-08T12:38:54;100258.84;;;11.36;47.24
24440;BME280;12618;54.386;18.394;2023-10-08T12:41:29;100271.20;;;11.36;47.46
24440;BME280;12618;54.386;18.394;2023-10-08T12:44:03;100267.48;;;11.36;47.50
24440;BME280;12618;54.386;18.394;2023-10-08T12:46:38;100262.99;;;11.34;46.97
24440;BME280;12618;54.386;18.394;2023-10-08T12:49:11;100261.21;;;11.30;47.13
24440;BME280;12618;54.386;18.394;2023-10-08T12:51:42;100252.02;;;11.35;48.01
24440;BME280;12618;54.386;18.394;2023-10-08T12:54:17;100258.47;;;11.41;47.36
24440;BME280;12618;54.386;18.394;2023-10-08T12:56:53;100260.39;;;11.33;46.89
24440;BME280;12618;54.386;18.394;2023-10-08T12:59:27;100256.66;;;11.29;47.45
24440;BME280;12618;54.386;18.394;2023-10-08T13:02:04;100261.08;;;11.34;47.92
24440;BME280;12618;54.386;18.394;2023-10-08T13:04:40;100257.49;;;11.47;48.05
24440;BME280;12618;54.386;18.394;2023-10-08T13:07:12;100259.40;;;11.56;47.73
24440;BME280;12618;54.386;18.394;2023-10-08T13:09:45;100259.91;;;11.48;47.22
24440;BME280;12618;54.386;18.394;2023-10-08T13:12:17;100267.11;;;11.45;47.73
24440;BME280;12618;54.386;18.394;2023-10-08T13:14:49;100260.20;;;11.46;47.43
24440;BME280;12618;54.386;18.394;2023-10-08T13:17:21;100258.98;;;11.53;47.25
24440;BME280;12618;54.386;18.394;2023-10-08T13:19:53;100264.91;;;11.55;47.22
24440;BME280;12618;54.386;18.394;2023-10-08T13:22:24;100267.45;;;11.57;47.94
24440;BME280;12618;54.386;18.394;2023-10-08T13:31:54;100275.06;;;11.49;48.60
24440;BME280;12618;54.386;18.394;2023-10-08T13:34:26;100277.20;;;11.40;48.92
24440;BME280;12618;54.386;18.394;2023-10-08T13:36:58;100276.05;;;11.34;49.61
24440;BME280;12618;54.386;18.394;2023-10-08T13:39:30;100274.15;;;11.33;50.26
24440;BME280;12618;54.386;18.394;2023-10-08T13:42:01;100275.14;;;11.39;50.24
24440;BME280;12618;54.386;18.394;2023-10-08T13:44:34;100280.45;;;11.46;49.94
24440;BME280;12618;54.386;18.394;2023-10-08T13:47:06;100285.81;;;11.40;49.24
24440;BME280;12618;54.386;18.394;2023-10-08T13:49:39;100285.39;;;11.25;49.61
24440;BME280;12618;54.386;18.394;2023-10-08T13:52:12;100282.85;;;11.23;50.00
24440;BME280;12618;54.386;18.394;2023-10-08T13:54:44;100280.70;;;11.19;50.27
24440;BME280;12618;54.386;18.394;2023-10-08T13:57:23;100288.59;;;11.20;51.01
24440;BME280;12618;54.386;18.394;2023-10-08T13:59:58;100292.79;;;11.21;51.02
24440;BME280;12618;54.386;18.394;2023-10-08T14:02:31;100292.64;;;11.16;50.20
24440;BME280;12618;54.386;18.394;2023-10-08T14:05:03;100296.98;;;11.14;50.61
24440;BME280;12618;54.386;18.394;2023-10-08T14:07:41;100299.45;;;11.13;50.54
24440;BME280;12618;54.386;18.394;2023-10-08T14:10:16;100299.88;;;11.12;51.19
24440;BME280;12618;54.386;18.394;2023-10-08T14:12:50;100300.80;;;11.15;51.81
24440;BME280;12618;54.386;18.394;2023-10-08T14:15:21;100304.79;;;11.25;51.68
24440;BME280;12618;54.386;18.394;2023-10-08T14:17:54;100306.71;;;11.34;52.18
24440;BME280;12618;54.386;18.394;2023-10-08T14:20:30;100309.76;;;11.37;51.36
24440;BME280;12618;54.386;18.394;2023-10-08T14:23:03;100317.56;;;11.26;51.71